sensor_id;sensor_type;location;lat;lon;timestamp;pressure;altitude;pressure_sealevel;temperature;humidity
77288;BME280;66345;42.694;23.346;2023-08-06T00:02:13;94401.50;;;19.33;85.72
77288;BME280;66345;42.694;23.346;2023-08-06T00:04:39;94377.56;;;19.32;83.69
77288;BME280;66345;42.694;23.346;2023-08-06T00:07:04;94378.63;;;19.26;82.85
77288;BME280;66345;42.694;23.346;2023-08-06T00:09:30;94402.88;;;19.21;84.41
77288;BME280;66345;42.694;23.346;2023-08-06T00:11:55;94400.69;;;19.18;86.21
77288;BME280;66345;42.694;23.346;2023-08-06T00:14:21;94417.13;;;19.21;87.39
77288;BME280;66345;42.694;23.346;2023-08-06T00:16:46;94416.31;;;19.16;84.84
77288;BME280;66345;42.694;23.346;2023-08-06T00:19:12;94397.75;;;19.24;82.86
77288;BME280;66345;42.694;23.346;2023-08-06T00:21:37;94367.34;;;19.24;82.61
77288;BME280;66345;42.694;23.346;2023-08-06T00:24:03;94380.53;;;19.25;83.53
77288;BME280;66345;42.694;23.346;2023-08-06T00:26:28;94385.13;;;19.20;83.73
77288;BME280;66345;42.694;23.346;2023-08-06T00:28:54;94403.13;;;19.24;85.10
77288;BME280;66345;42.694;23.346;2023-08-06T00:31:19;94395.84;;;19.40;85.85
77288;BME280;66345;42.694;23.346;2023-08-06T00:33:45;94388.59;;;19.30;84.00
77288;BME280;66345;42.694;23.346;2023-08-06T00:36:10;94375.16;;;19.20;83.01
77288;BME280;66345;42.694;23.346;2023-08-06T00:38:36;94371.09;;;19.33;83.81
77288;BME280;66345;42.694;23.346;2023-08-06T00:41:01;94380.25;;;19.27;83.77
77288;BME280;66345;42.694;23.346;2023-08-06T00:43:27;94358.44;;;19.33;84.48
77288;BME280;66345;42.694;23.346;2023-08-06T00:45:52;94364.91;;;19.32;81.97
77288;BME280;66345;42.694;23.346;2023-08-06T00:48:18;94359.78;;;19.41;81.95
77288;BME280;66345;42.694;23.346;2023-08-06T00:50:44;94354.69;;;19.34;82.19
77288;BME280;66345;42.694;23.346;2023-08-06T00:53:10;94360.63;;;19.11;84.18
77288;BME280;66345;42.694;23.346;2023-08-06T00:55:36;94367.59;;;19.32;84.35
77288;BME280;66345;42.694;23.346;2023-08-06T00:58:02;94366.53;;;19.38;84.30
77288;BME280;66345;42.694;23.346;2023-08-06T01:00:28;94353.09;;;19.23;84.65
77288;BME280;66345;42.694;23.346;2023-08-06T01:02:53;94339.91;;;19.11;85.43
77288;BME280;66345;42.694;23.346;2023-08-06T01:05:20;94342.06;;;19.30;85.40
77288;BME280;66345;42.694;23.346;2023-08-06T01:11:17;94309.22;;;19.43;85.21
77288;BME280;66345;42.694;23.346;2023-08-06T01:13:48;94314.63;;;19.23;84.12
77288;BME280;66345;42.694;23.346;2023-08-06T01:16:17;94323.25;;;18.99;86.28
77288;BME280;66345;42.694;23.346;2023-08-06T01:18:44;94323.53;;;18.98;86.16
77288;BME280;66345;42.694;23.346;2023-08-06T01:21:15;94329.97;;;19.07;87.60
77288;BME280;66345;42.694;23.346;2023-08-06T01:23:42;94325.41;;;19.12;86.75
77288;BME280;66345;42.694;23.346;2023-08-06T01:29:11;94299.78;;;19.61;86.20
77288;BME280;66345;42.694;23.346;2023-08-06T01:31:43;94300.31;;;19.53;84.90
77288;BME280;66345;42.694;23.346;2023-08-06T01:34:21;94304.91;;;19.57;84.57
77288;BME280;66345;42.694;23.346;2023-08-06T01:36:48;94304.03;;;19.72;84.67
77288;BME280;66345;42.694;23.346;2023-08-06T01:39:15;94307.06;;;19.45;83.69
77288;BME280;66345;42.694;23.346;2023-08-06T01:41:40;94300.84;;;19.65;85.46
77288;BME280;66345;42.694;23.346;2023-08-06T01:44:06;94294.63;;;19.64;84.34
77288;BME280;66345;42.694;23.346;2023-08-06T01:46:31;94303.25;;;19.66;83.53
77288;BME280;66345;42.694;23.346;2023-08-06T01:48:57;94295.19;;;19.66;82.92
77288;BME280;66345;42.694;23.346;2023-08-06T01:51:22;94296.00;;;19.52;82.65
77288;BME280;66345;42.694;23.346;2023-08-06T01:53:48;94294.66;;;19.54;83.86
77288;BME280;66345;42.694;23.346;2023-08-06T01:56:13;94301.09;;;19.68;83.71
77288;BME280;66345;42.694;23.346;2023-08-06T01:58:39;94296.78;;;19.73;84.13
77288;BME280;66345;42.694;23.346;2023-08-06T02:01:04;94302.41;;;19.76;82.66
77288;BME280;66345;42.694;23.346;2023-08-06T02:03:30;94299.78;;;19.66;83.24
77288;BME280;66345;42.694;23.346;2023-08-06T02:05:55;94288.16;;;19.71;83.71
77288;BME280;66345;42.694;23.346;2023-08-06T02:08:21;94291.41;;;19.67;83.48
77288;BME280;66345;42.694;23.346;2023-08-06T02:10:46;94281.72;;;19.66;83.14
77288;BME280;66345;42.694;23.346;2023-08-06T02:13:12;94278.19;;;19.81;83.75
77288;BME280;66345;42.694;23.346;2023-08-06T02:15:44;94281.19;;;19.64;82.67
77288;BME280;66345;42.694;23.346;2023-08-06T02:18:13;94288.47;;;19.54;84.16
77288;BME280;66345;42.694;23.346;2023-08-06T02:20:38;94291.16;;;19.54;84.28
77288;BME280;66345;42.694;23.346;2023-08-06T02:23:04;94301.94;;;19.59;84.27
77288;BME280;66345;42.694;23.346;2023-08-06T02:25:29;94311.31;;;19.56;85.43
77288;BME280;66345;42.694;23.346;2023-08-06T02:27:55;94325.34;;;19.53;83.66
77288;BME280;66345;42.694;23.346;2023-08-06T02:30:20;94318.34;;;19.47;84.71
77288;BME280;66345;42.694;23.346;2023-08-06T02:32:46;94304.09;;;19.47;84.62
77288;BME280;66345;42.694;23.346;2023-08-06T02:35:11;94287.94;;;19.47;86.78
77288;BME280;66345;42.694;23.346;2023-08-06T02:37:37;94305.47;;;19.29;87.93
77288;BME280;66345;42.694;23.346;2023-08-06T02:40:02;94318.41;;;18.86;91.92
77288;BME280;66345;42.694;23.346;2023-08-06T02:42:28;94334.00;;;18.84;93.23
77288;BME280;66345;42.694;23.346;2023-08-06T02:44:54;94348.97;;;18.49;92.53
77288;BME280;66345;42.694;23.346;2023-08-06T02:47:22;94348.72;;;18.56;93.64
77288;BME280;66345;42.694;23.346;2023-08-06T02:49:48;94335.03;;;18.57;94.37
77288;BME280;66345;42.694;23.346;2023-08-06T02:52:14;94316.53;;;18.76;95.41
77288;BME280;66345;42.694;23.346;2023-08-06T02:54:39;94313.84;;;18.76;93.95
77288;BME280;66345;42.694;23.346;2023-08-06T02:57:05;94292.63;;;18.70;92.72
77288;BME280;66345;42.694;23.346;2023-08-06T02:59:32;94302.28;;;18.71;92.34
77288;BME280;66345;42.694;23.346;2023-08-06T03:01:57;94293.16;;;18.82;94.30
77288;BME280;66345;42.694;23.346;2023-08-06T03:04:23;94276.50;;;18.90;92.02
77288;BME280;66345;42.694;23.346;2023-08-06T03:06:51;94264.09;;;18.99;89.51
77288;BME280;66345;42.694;23.346;2023-08-06T03:09:17;94292.59;;;19.05;90.00
77288;BME280;66345;42.694;23.346;2023-08-06T03:11:43;94255.78;;;19.06;89.91
77288;BME280;66345;42.694;23.346;2023-08-06T03:14:09;94233.72;;;18.99;91.15
77288;BME280;66345;42.694;23.346;2023-08-06T03:16:35;94227.81;;;18.92;89.66
77288;BME280;66345;42.694;23.346;2023-08-06T03:19:00;94275.94;;;18.78;92.15
77288;BME280;66345;42.694;23.346;2023-08-06T03:21:26;94268.69;;;18.83;92.68
77288;BME280;66345;42.694;23.346;2023-08-06T03:23:51;94236.41;;;18.99;92.62
77288;BME280;66345;42.694;23.346;2023-08-06T03:26:17;94218.97;;;18.91;92.24
77288;BME280;66345;42.694;23.346;2023-08-06T03:28:43;94252.81;;;18.56;91.64
77288;BME280;66345;42.694;23.346;2023-08-06T03:31:08;94282.94;;;18.69;93.14
77288;BME280;66345;42.694;23.346;2023-08-06T03:33:34;94316.75;;;18.65;93.91
77288;BME280;66345;42.694;23.346;2023-08-06T03:36:00;94324.06;;;18.79;93.07
77288;BME280;66345;42.694;23.346;2023-08-06T03:38:25;94332.41;;;18.98;93.47
77288;BME280;66345;42.694;23.346;2023-08-06T03:40:51;94333.47;;;18.87;90.00
77288;BME280;66345;42.694;23.346;2023-08-06T03:43:16;94311.44;;;18.85;90.33
77288;BME280;66345;42.694;23.346;2023-08-06T03:45:42;94299.06;;;18.99;91.08
77288;BME280;66345;42.694;23.346;2023-08-06T03:48:08;94306.84;;;19.01;90.41
77288;BME280;66345;42.694;23.346;2023-08-06T03:50:34;94315.44;;;19.08;92.75
77288;BME280;66345;42.694;23.346;2023-08-06T03:52:59;94298.25;;;19.09;93.01
77288;BME280;66345;42.694;23.346;2023-08-06T03:55:24;94295.53;;;19.04;91.39
77288;BME280;66345;42.694;23.346;2023-08-06T03:57:50;94315.19;;;19.09;92.43
77288;BME280;66345;42.694;23.346;2023-08-06T04:00:15;94310.59;;;19.10;91.75
77288;BME280;66345;42.694;23.346;2023-08-06T04:02:41;94306.84;;;19.16;92.08
77288;BME280;66345;42.694;23.346;2023-08-06T04:05:07;94313.03;;;19.01;91.21
77288;BME280;66345;42.694;23.346;2023-08-06T04:07:32;94336.97;;;19.03;91.76
77288;BME280;66345;42.694;23.346;2023-08-06T04:10:00;94334.84;;;18.90;91.23
77288;BME280;66345;42.694;23.346;2023-08-06T04:12:26;94343.69;;;18.80;90.37
77288;BME280;66345;42.694;23.346;2023-08-06T04:14:52;94344.75;;;18.94;91.20
77288;BME280;66345;42.694;23.346;2023-08-06T04:17:18;94336.16;;;19.02;90.51
77288;BME280;66345;42.694;23.346;2023-08-06T04:19:48;94333.72;;;19.21;91.02
77288;BME280;66345;42.694;23.346;2023-08-06T04:22:14;94331.28;;;19.40;89.80
77288;BME280;66345;42.694;23.346;2023-08-06T04:24:40;94318.59;;;19.56;89.53
77288;BME280;66345;42.694;23.346;2023-08-06T04:27:05;94308.66;;;19.46;90.12
77288;BME280;66345;42.694;23.346;2023-08-06T04:29:31;94311.91;;;19.43;89.64
77288;BME280;66345;42.694;23.346;2023-08-06T04:31:57;94309.47;;;19.41;90.08
77288;BME280;66345;42.694;23.346;2023-08-06T04:34:23;94307.06;;;19.40;91.18
77288;BME280;66345;42.694;23.346;2023-08-06T04:36:48;94307.34;;;19.38;90.33
77288;BME280;66345;42.694;23.346;2023-08-06T04:39:14;94293.03;;;19.68;90.40
77288;BME280;66345;42.694;23.346;2023-08-06T04:41:39;94294.31;;;19.81;90.02
77288;BME280;66345;42.694;23.346;2023-08-06T04:44:04;94285.50;;;19.65;88.99
77288;BME280;66345;42.694;23.346;2023-08-06T04:46:30;94283.56;;;19.81;89.76
77288;BME280;66345;42.694;23.346;2023-08-06T04:48:55;94278.97;;;19.82;89.50
77288;BME280;66345;42.694;23.346;2023-08-06T04:51:21;94269.25;;;19.86;88.19
77288;BME280;66345;42.694;23.346;2023-08-06T04:53:46;94254.66;;;19.97;87.62
77288;BME280;66345;42.694;23.346;2023-08-06T04:56:12;94253.03;;;20.01;86.92
77288;BME280;66345;42.694;23.346;2023-08-06T04:58:37;94249.72;;;20.14;86.92
77288;BME280;66345;42.694;23.346;2023-08-06T05:01:03;94244.91;;;20.11;85.77
77288;BME280;66345;42.694;23.346;2023-08-06T05:03:28;94241.34;;;20.16;85.64
77288;BME280;66345;42.694;23.346;2023-08-06T05:05:54;94254.50;;;20.28;85.72
77288;BME280;66345;42.694;23.346;2023-08-06T05:08:19;94250.13;;;20.37;85.46
77288;BME280;66345;42.694;23.346;2023-08-06T05:10:45;94253.47;;;20.92;83.04
77288;BME280;66345;42.694;23.346;2023-08-06T05:13:11;94247.03;;;21.46;79.50
77288;BME280;66345;42.694;23.346;2023-08-06T05:15:36;94251.47;;;22.03;77.21
77288;BME280;66345;42.694;23.346;2023-08-06T05:18:02;94251.34;;;22.70;72.83
77288;BME280;66345;42.694;23.346;2023-08-06T05:20:28;94257.50;;;23.82;69.59
77288;BME280;66345;42.694;23.346;2023-08-06T05:22:54;94258.41;;;24.77;65.44
77288;BME280;66345;42.694;23.346;2023-08-06T05:25:20;94271.47;;;25.11;63.72
77288;BME280;66345;42.694;23.346;2023-08-06T05:27:45;94262.81;;;24.87;63.98
77288;BME280;66345;42.694;23.346;2023-08-06T05:30:11;94263.53;;;25.01;65.10
77288;BME280;66345;42.694;23.346;2023-08-06T05:32:36;94264.00;;;23.53;68.44
77288;BME280;66345;42.694;23.346;2023-08-06T05:35:02;94266.03;;;23.15;70.73
77288;BME280;66345;42.694;23.346;2023-08-06T05:37:28;94256.91;;;23.99;68.76
77288;BME280;66345;42.694;23.346;2023-08-06T05:39:53;94262.19;;;24.68;64.05
77288;BME280;66345;42.694;23.346;2023-08-06T05:42:19;94241.69;;;25.68;60.94
77288;BME280;66345;42.694;23.346;2023-08-06T05:44:44;94245.91;;;25.43;60.62
77288;BME280;66345;42.694;23.346;2023-08-06T05:47:10;94235.25;;;25.87;59.90
77288;BME280;66345;42.694;23.346;2023-08-06T05:49:35;94231.88;;;25.81;59.33
77288;BME280;66345;42.694;23.346;2023-08-06T05:52:01;94240.13;;;26.07;59.02
77288;BME280;66345;42.694;23.346;2023-08-06T05:54:27;94241.16;;;27.06;56.57
77288;BME280;66345;42.694;23.346;2023-08-06T05:56:53;94253.06;;;28.55;51.41
77288;BME280;66345;42.694;23.346;2023-08-06T05:59:18;94248.59;;;28.20;52.64
77288;BME280;66345;42.694;23.346;2023-08-06T06:01:44;94263.09;;;26.84;55.05
77288;BME280;66345;42.694;23.346;2023-08-06T06:04:09;94268.63;;;25.16;60.42
77288;BME280;66345;42.694;23.346;2023-08-06T06:06:36;94266.75;;;24.81;60.48
77288;BME280;66345;42.694;23.346;2023-08-06T06:09:02;94276.13;;;24.97;59.84
77288;BME280;66345;42.694;23.346;2023-08-06T06:11:27;94279.75;;;24.70;60.75
77288;BME280;66345;42.694;23.346;2023-08-06T06:13:53;94270.69;;;24.97;60.67
77288;BME280;66345;42.694;23.346;2023-08-06T06:16:18;94266.38;;;26.29;56.01
77288;BME280;66345;42.694;23.346;2023-08-06T06:18:44;94272.59;;;27.68;50.70
77288;BME280;66345;42.694;23.346;2023-08-06T06:21:10;94297.06;;;27.04;50.25
77288;BME280;66345;42.694;23.346;2023-08-06T06:23:36;94294.63;;;27.28;51.37
77288;BME280;66345;42.694;23.346;2023-08-06T06:26:01;94294.50;;;27.16;52.75
77288;BME280;66345;42.694;23.346;2023-08-06T06:28:27;94294.44;;;27.51;50.57
77288;BME280;66345;42.694;23.346;2023-08-06T06:31:00;94306.06;;;28.54;49.21
77288;BME280;66345;42.694;23.346;2023-08-06T06:33:26;94310.25;;;29.55;45.72
77288;BME280;66345;42.694;23.346;2023-08-06T06:35:52;94318.72;;;29.63;44.72
77288;BME280;66345;42.694;23.346;2023-08-06T06:38:17;94323.41;;;29.20;45.18
77288;BME280;66345;42.694;23.346;2023-08-06T06:40:43;94317.94;;;29.74;44.66
77288;BME280;66345;42.694;23.346;2023-08-06T06:43:08;94321.47;;;29.42;43.92
77288;BME280;66345;42.694;23.346;2023-08-06T06:45:36;94332.16;;;29.68;43.59
77288;BME280;66345;42.694;23.346;2023-08-06T06:48:02;94328.75;;;30.16;41.96
77288;BME280;66345;42.694;23.346;2023-08-06T06:50:27;94337.84;;;30.08;40.84
77288;BME280;66345;42.694;23.346;2023-08-06T06:52:53;94350.41;;;30.21;41.18
77288;BME280;66345;42.694;23.346;2023-08-06T06:55:26;94356.00;;;27.52;47.33
77288;BME280;66345;42.694;23.346;2023-08-06T06:57:51;94353.53;;;26.64;50.43
77288;BME280;66345;42.694;23.346;2023-08-06T07:00:17;94349.88;;;26.20;51.21
77288;BME280;66345;42.694;23.346;2023-08-06T07:02:42;94359.31;;;26.71;49.96
77288;BME280;66345;42.694;23.346;2023-08-06T07:05:08;94354.69;;;26.89;49.52
77288;BME280;66345;42.694;23.346;2023-08-06T07:07:37;94356.28;;;27.76;47.68
77288;BME280;66345;42.694;23.346;2023-08-06T07:10:03;94356.13;;;29.08;44.47
77288;BME280;66345;42.694;23.346;2023-08-06T07:12:29;94362.38;;;29.83;41.29
77288;BME280;66345;42.694;23.346;2023-08-06T07:26:03;94378.09;;;29.74;40.46
77288;BME280;66345;42.694;23.346;2023-08-06T07:28:28;94374.13;;;30.17;39.79
77288;BME280;66345;42.694;23.346;2023-08-06T07:30:53;94377.34;;;30.31;40.61
77288;BME280;66345;42.694;23.346;2023-08-06T07:33:19;94381.25;;;29.43;41.70
77288;BME280;66345;42.694;23.346;2023-08-06T07:35:45;94372.91;;;29.61;41.88
77288;BME280;66345;42.694;23.346;2023-08-06T07:38:11;94375.97;;;29.80;40.11
77288;BME280;66345;42.694;23.346;2023-08-06T07:40:36;94372.66;;;30.44;38.05
77288;BME280;66345;42.694;23.346;2023-08-06T07:43:03;94356.13;;;32.93;33.70
77288;BME280;66345;42.694;23.346;2023-08-06T07:45:32;94363.72;;;33.34;32.68
77288;BME280;66345;42.694;23.346;2023-08-06T07:47:59;94366.34;;;33.66;31.83
77288;BME280;66345;42.694;23.346;2023-08-06T07:50:24;94361.78;;;33.00;32.51
77288;BME280;66345;42.694;23.346;2023-08-06T07:52:50;94369.47;;;33.64;32.52
77288;BME280;66345;42.694;23.346;2023-08-06T07:55:16;94363.91;;;33.42;32.17
77288;BME280;66345;42.694;23.346;2023-08-06T07:57:41;94360.19;;;32.83;34.14
77288;BME280;66345;42.694;23.346;2023-08-06T08:00:07;94360.03;;;32.92;34.09
77288;BME280;66345;42.694;23.346;2023-08-06T08:02:34;94371.31;;;29.93;40.10
77288;BME280;66345;42.694;23.346;2023-08-06T08:05:00;94366.34;;;29.20;40.23
77288;BME280;66345;42.694;23.346;2023-08-06T08:07:26;94362.16;;;28.42;41.45
77288;BME280;66345;42.694;23.346;2023-08-06T08:09:54;94359.97;;;27.72;43.81
77288;BME280;66345;42.694;23.346;2023-08-06T08:12:19;94372.00;;;26.93;45.09
77288;BME280;66345;42.694;23.346;2023-08-06T08:14:45;94361.59;;;29.29;40.63
77288;BME280;66345;42.694;23.346;2023-08-06T08:17:11;94347.00;;;31.38;36.64
77288;BME280;66345;42.694;23.346;2023-08-06T08:19:37;94349.56;;;32.18;34.58
77288;BME280;66345;42.694;23.346;2023-08-06T08:22:02;94367.34;;;30.02;38.22
77288;BME280;66345;42.694;23.346;2023-08-06T08:24:29;94353.63;;;29.03;39.93
77288;BME280;66345;42.694;23.346;2023-08-06T08:26:55;94359.66;;;29.83;39.46
77288;BME280;66345;42.694;23.346;2023-08-06T08:29:21;94362.75;;;29.82;39.69
77288;BME280;66345;42.694;23.346;2023-08-06T08:31:47;94351.13;;;32.32;34.73
77288;BME280;66345;42.694;23.346;2023-08-06T08:34:15;94353.22;;;34.67;30.70
77288;BME280;66345;42.694;23.346;2023-08-06T08:36:40;94356.69;;;33.76;31.68
77288;BME280;66345;42.694;23.346;2023-08-06T08:39:06;94351.03;;;33.30;32.71
77288;BME280;66345;42.694;23.346;2023-08-06T08:41:37;94344.69;;;34.75;29.64
77288;BME280;66345;42.694;23.346;2023-08-06T08:44:07;94349.53;;;34.56;29.17
77288;BME280;66345;42.694;23.346;2023-08-06T08:46:36;94349.69;;;31.50;34.64
77288;BME280;66345;42.694;23.346;2023-08-06T08:49:02;94347.69;;;32.35;34.38
77288;BME280;66345;42.694;23.346;2023-08-06T08:51:28;94346.75;;;33.13;32.67
77288;BME280;66345;42.694;23.346;2023-08-06T08:53:55;94341.38;;;34.17;30.18
77288;BME280;66345;42.694;23.346;2023-08-06T08:56:24;94338.34;;;35.88;28.70
77288;BME280;66345;42.694;23.346;2023-08-06T08:58:50;94327.59;;;36.13;26.78
77288;BME280;66345;42.694;23.346;2023-08-06T09:01:18;94322.84;;;37.13;25.38
77288;BME280;66345;42.694;23.346;2023-08-06T09:03:46;94335.28;;;34.76;28.94
77288;BME280;66345;42.694;23.346;2023-08-06T09:06:15;94327.09;;;36.45;27.67
77288;BME280;66345;42.694;23.346;2023-08-06T09:08:49;94320.19;;;36.24;27.46
77288;BME280;66345;42.694;23.346;2023-08-06T09:11:17;94316.78;;;36.38;27.28
77288;BME280;66345;42.694;23.346;2023-08-06T09:13:45;94323.03;;;36.83;26.66
77288;BME280;66345;42.694;23.346;2023-08-06T09:16:11;94316.34;;;36.36;27.12
77288;BME280;66345;42.694;23.346;2023-08-06T09:18:38;94308.19;;;37.09;25.97
77288;BME280;66345;42.694;23.346;2023-08-06T09:21:04;94306.19;;;37.02;26.81
77288;BME280;66345;42.694;23.346;2023-08-06T09:23:31;94305.72;;;36.38;26.94
77288;BME280;66345;42.694;23.346;2023-08-06T09:25:58;94304.03;;;36.74;26.21
77288;BME280;66345;42.694;23.346;2023-08-06T09:28:23;94298.56;;;35.59;27.46
77288;BME280;66345;42.694;23.346;2023-08-06T09:30:52;94296.34;;;37.05;25.74
77288;BME280;66345;42.694;23.346;2023-08-06T09:33:22;94304.38;;;35.84;26.27
77288;BME280;66345;42.694;23.346;2023-08-06T09:35:48;94296.47;;;36.71;25.69
77288;BME280;66345;42.694;23.346;2023-08-06T09:38:13;94294.38;;;35.72;25.98
77288;BME280;66345;42.694;23.346;2023-08-06T09:40:40;94289.41;;;35.21;27.53
77288;BME280;66345;42.694;23.346;2023-08-06T09:43:06;94278.03;;;35.56;26.76
77288;BME280;66345;42.694;23.346;2023-08-06T09:45:37;94285.69;;;37.17;25.01
77288;BME280;66345;42.694;23.346;2023-08-06T09:48:04;94286.41;;;36.97;23.76
77288;BME280;66345;42.694;23.346;2023-08-06T09:50:31;94283.78;;;35.78;25.58
77288;BME280;66345;42.694;23.346;2023-08-06T09:52:58;94294.22;;;34.45;27.64
77288;BME280;66345;42.694;23.346;2023-08-06T09:55:24;94300.78;;;32.78;31.12
77288;BME280;66345;42.694;23.346;2023-08-06T09:57:53;94298.06;;;31.12;32.65
77288;BME280;66345;42.694;23.346;2023-08-06T10:00:19;94293.56;;;30.91;33.27
77288;BME280;66345;42.694;23.346;2023-08-06T10:02:45;94297.72;;;30.24;35.59
77288;BME280;66345;42.694;23.346;2023-08-06T10:05:14;94301.84;;;29.07;35.95
77288;BME280;66345;42.694;23.346;2023-08-06T10:07:43;94302.97;;;28.55;37.79
77288;BME280;66345;42.694;23.346;2023-08-06T10:10:10;94303.75;;;28.85;37.84
77288;BME280;66345;42.694;23.346;2023-08-06T10:12:56;94304.88;;;28.34;38.65
77288;BME280;66345;42.694;23.346;2023-08-06T10:15:26;94313.22;;;28.37;39.31
77288;BME280;66345;42.694;23.346;2023-08-06T10:17:55;94321.09;;;27.92;39.42
77288;BME280;66345;42.694;23.346;2023-08-06T10:20:22;94302.88;;;27.75;38.93
77288;BME280;66345;42.694;23.346;2023-08-06T10:23:04;94300.78;;;27.72;39.99
77288;BME280;66345;42.694;23.346;2023-08-06T10:25:31;94288.94;;;30.19;35.47
77288;BME280;66345;42.694;23.346;2023-08-06T10:27:59;94296.88;;;30.60;33.82
77288;BME280;66345;42.694;23.346;2023-08-06T10:30:29;94303.00;;;29.84;35.67
77288;BME280;66345;42.694;23.346;2023-08-06T10:33:00;94306.56;;;28.97;37.09
77288;BME280;66345;42.694;23.346;2023-08-06T10:38:11;94318.94;;;27.68;40.57
77288;BME280;66345;42.694;23.346;2023-08-06T10:40:47;94329.53;;;28.08;39.91
77288;BME280;66345;42.694;23.346;2023-08-06T10:45:59;94319.38;;;28.17;38.88
77288;BME280;66345;42.694;23.346;2023-08-06T10:48:32;94329.59;;;27.99;40.08
77288;BME280;66345;42.694;23.346;2023-08-06T10:50:59;94333.53;;;27.55;40.59
77288;BME280;66345;42.694;23.346;2023-08-06T10:53:27;94337.84;;;27.82;41.41
77288;BME280;66345;42.694;23.346;2023-08-06T10:55:52;94330.34;;;27.53;41.31
77288;BME280;66345;42.694;23.346;2023-08-06T10:58:18;94341.59;;;27.17;41.09
77288;BME280;66345;42.694;23.346;2023-08-06T11:00:43;94346.88;;;27.04;42.13
77288;BME280;66345;42.694;23.346;2023-08-06T11:03:09;94346.22;;;26.99;42.50
77288;BME280;66345;42.694;23.346;2023-08-06T11:05:39;94349.41;;;26.92;42.15
77288;BME280;66345;42.694;23.346;2023-08-06T11:08:04;94354.72;;;27.23;41.87
77288;BME280;66345;42.694;23.346;2023-08-06T11:10:32;94344.16;;;27.22;41.50
77288;BME280;66345;42.694;23.346;2023-08-06T11:13:02;94343.97;;;27.53;41.01
77288;BME280;66345;42.694;23.346;2023-08-06T11:15:27;94355.69;;;27.10;41.79
77288;BME280;66345;42.694;23.346;2023-08-06T11:17:54;94355.78;;;26.53;43.42
77288;BME280;66345;42.694;23.346;2023-08-06T11:20:20;94355.47;;;26.89;42.38
77288;BME280;66345;42.694;23.346;2023-08-06T11:22:47;94363.03;;;27.01;42.67
77288;BME280;66345;42.694;23.346;2023-08-06T11:25:13;94373.94;;;27.01;42.87
77288;BME280;66345;42.694;23.346;2023-08-06T11:27:39;94378.81;;;26.47;47.28
77288;BME280;66345;42.694;23.346;2023-08-06T11:30:05;94384.88;;;25.82;47.18
77288;BME280;66345;42.694;23.346;2023-08-06T11:32:32;94378.22;;;25.65;49.96
77288;BME280;66345;42.694;23.346;2023-08-06T11:34:58;94373.03;;;25.55;51.00
77288;BME280;66345;42.694;23.346;2023-08-06T11:37:24;94369.06;;;25.61;51.65
77288;BME280;66345;42.694;23.346;2023-08-06T11:39:51;94365.97;;;25.54;50.17
77288;BME280;66345;42.694;23.346;2023-08-06T11:42:17;94365.72;;;25.87;48.91
77288;BME280;66345;42.694;23.346;2023-08-06T11:44:43;94359.50;;;26.26;46.59
77288;BME280;66345;42.694;23.346;2023-08-06T11:47:17;94348.13;;;26.90;43.98
77288;BME280;66345;42.694;23.346;2023-08-06T11:49:49;94343.06;;;27.05;43.97
77288;BME280;66345;42.694;23.346;2023-08-06T11:52:25;94346.31;;;26.59;44.13
77288;BME280;66345;42.694;23.346;2023-08-06T11:57:36;94352.19;;;26.44;43.97
77288;BME280;66345;42.694;23.346;2023-08-06T12:00:10;94340.91;;;26.76;42.88
77288;BME280;66345;42.694;23.346;2023-08-06T12:02:36;94340.63;;;27.04;42.50
77288;BME280;66345;42.694;23.346;2023-08-06T12:05:09;94331.03;;;27.15;41.58
77288;BME280;66345;42.694;23.346;2023-08-06T12:07:40;94327.63;;;27.01;42.20
77288;BME280;66345;42.694;23.346;2023-08-06T12:10:06;94334.34;;;26.77;41.80
77288;BME280;66345;42.694;23.346;2023-08-06T12:12:32;94335.81;;;27.09;40.16
77288;BME280;66345;42.694;23.346;2023-08-06T12:14:59;94327.13;;;26.81;40.87
77288;BME280;66345;42.694;23.346;2023-08-06T12:17:25;94323.28;;;26.82;41.82
77288;BME280;66345;42.694;23.346;2023-08-06T12:19:51;94325.72;;;27.10;41.58
77288;BME280;66345;42.694;23.346;2023-08-06T12:22:17;94319.78;;;26.99;39.61
77288;BME280;66345;42.694;23.346;2023-08-06T12:24:44;94317.72;;;27.14;40.06
77288;BME280;66345;42.694;23.346;2023-08-06T12:27:10;94327.97;;;27.08;40.13
77288;BME280;66345;42.694;23.346;2023-08-06T12:29:36;94330.69;;;26.91;40.73
77288;BME280;66345;42.694;23.346;2023-08-06T12:32:03;94336.28;;;26.68;40.36
77288;BME280;66345;42.694;23.346;2023-08-06T12:34:28;94327.44;;;26.71;40.84
77288;BME280;66345;42.694;23.346;2023-08-06T12:36:54;94326.50;;;26.85;40.34
77288;BME280;66345;42.694;23.346;2023-08-06T12:39:19;94327.13;;;26.73;41.36
77288;BME280;66345;42.694;23.346;2023-08-06T12:41:45;94324.59;;;26.85;39.94
77288;BME280;66345;42.694;23.346;2023-08-06T12:44:12;94324.59;;;26.94;40.07
77288;BME280;66345;42.694;23.346;2023-08-06T12:46:38;94318.69;;;27.18;40.22
77288;BME280;66345;42.694;23.346;2023-08-06T12:49:04;94309.66;;;27.34;40.06
77288;BME280;66345;42.694;23.346;2023-08-06T12:51:30;94316.13;;;27.21;39.84
77288;BME280;66345;42.694;23.346;2023-08-06T12:53:56;94313.00;;;27.49;39.70
77288;BME280;66345;42.694;23.346;2023-08-06T12:56:21;94320.69;;;27.55;39.51
77288;BME280;66345;42.694;23.346;2023-08-06T12:58:47;94317.81;;;27.69;39.13
77288;BME280;66345;42.694;23.346;2023-08-06T13:01:12;94315.44;;;27.42;40.63
77288;BME280;66345;42.694;23.346;2023-08-06T13:03:38;94330.06;;;27.11;39.74
77288;BME280;66345;42.694;23.346;2023-08-06T13:06:03;94326.84;;;26.92;40.98
77288;BME280;66345;42.694;23.346;2023-08-06T13:08:29;94324.06;;;26.48;40.76
77288;BME280;66345;42.694;23.346;2023-08-06T13:10:54;94321.88;;;26.85;40.89
77288;BME280;66345;42.694;23.346;2023-08-06T13:13:20;94324.59;;;27.28;40.07